Time;durP1;ratioP1;P1;durP2;ratioP2;P2;SDS_P1;SDS_P2;PMS_P1;PMS_P2;Temp;Humidity;BMP_temperature;BMP_pressure;BME280_temperature;BME280_humidity;BME280_pressure;Samples;Min_cycle;Max_cycle;Signal;HPM_P1;HPM_P2
2022/08/06 00:00:01;;;;;;;20.13;12.80;;;19.50;99.90;;;;;;5080814;28;20503;-60
2022/08/06 00:02:29;;;;;;;19.47;13.73;;;19.50;99.90;;;;;;5079899;28;20467;-60
2022/08/06 00:04:56;;;;;;;19.47;12.93;;;19.50;99.90;;;;;;5084274;28;20430;-60
2022/08/06 00:07:22;;;;;;;20.80;13.33;;;19.50;99.90;;;;;;5079353;28;20956;-60
2022/08/06 00:09:47;;;;;;;22.37;14.70;;;19.50;99.90;;;;;;5085727;28;20422;-60
2022/08/06 00:12:13;;;;;;;23.07;13.97;;;19.50;99.90;;;;;;5084503;28;20515;-60
2022/08/06 00:14:39;;;;;;;23.77;14.50;;;19.50;99.90;;;;;;5082260;28;20177;-60
2022/08/06 00:17:05;;;;;;;22.53;15.77;;;19.40;99.90;;;;;;5084972;28;20665;-61
2022/08/06 00:19:30;;;;;;;22.63;14.90;;;19.50;99.90;;;;;;5080024;28;20180;-60
2022/08/06 00:21:56;;;;;;;24.83;15.70;;;19.40;99.90;;;;;;5082860;28;20665;-60
2022/08/06 00:24:22;;;;;;;25.90;16.00;;;19.40;99.90;;;;;;5082619;28;20698;-60
2022/08/06 00:26:47;;;;;;;22.20;16.20;;;19.40;99.90;;;;;;5080516;28;20700;-61
2022/08/06 00:29:13;;;;;;;22.13;14.70;;;19.40;99.90;;;;;;5078117;28;20206;-61
2022/08/06 00:31:39;;;;;;;29.57;16.57;;;19.30;99.90;;;;;;5082389;28;20840;-61
2022/08/06 00:34:05;;;;;;;24.23;15.60;;;19.30;99.90;;;;;;5078686;28;20166;-60
2022/08/06 00:36:32;;;;;;;25.93;16.07;;;19.30;99.90;;;;;;5080026;28;20193;-61
2022/08/06 00:39:00;;;;;;;23.70;14.70;;;19.20;99.90;;;;;;5079052;28;20420;-61
2022/08/06 00:41:27;;;;;;;22.90;14.83;;;19.20;99.90;;;;;;5083316;28;20512;-60
2022/08/06 00:43:53;;;;;;;27.50;14.50;;;19.10;99.90;;;;;;5086037;28;20411;-61
2022/08/06 00:46:19;;;;;;;25.20;14.03;;;19.10;99.90;;;;;;5079540;28;21042;-60
2022/08/06 00:48:44;;;;;;;21.83;14.60;;;19.10;99.90;;;;;;5078325;28;20170;-60
2022/08/06 00:51:10;;;;;;;25.47;14.17;;;19.00;99.90;;;;;;5080534;28;20174;-60
2022/08/06 00:53:36;;;;;;;21.53;12.00;;;19.00;99.90;;;;;;5087030;28;20653;-60
2022/08/06 00:56:03;;;;;;;16.63;10.20;;;18.90;99.90;;;;;;5080065;28;20217;-60
2022/08/06 00:58:29;;;;;;;19.87;11.47;;;18.80;99.90;;;;;;5079071;28;20524;-61
2022/08/06 01:00:55;;;;;;;17.90;9.37;;;18.70;99.90;;;;;;5083087;28;20971;-60
2022/08/06 01:03:21;;;;;;;15.77;9.10;;;18.70;99.90;;;;;;5077467;28;20181;-61
2022/08/06 01:05:46;;;;;;;15.33;9.27;;;18.60;99.90;;;;;;5082703;28;20460;-60
2022/08/06 01:08:13;;;;;;;15.20;9.13;;;18.60;99.90;;;;;;5081593;28;20428;-60
2022/08/06 01:10:38;;;;;;;13.27;8.40;;;18.50;99.90;;;;;;5078425;28;20189;-60
2022/08/06 01:13:04;;;;;;;14.50;9.13;;;18.50;99.90;;;;;;5086882;28;20428;-61
2022/08/06 01:15:36;;;;;;;17.27;9.87;;;18.40;99.90;;;;;;5088787;28;20257;-60
2022/08/06 01:18:12;;;;;;;14.27;10.00;;;18.40;99.90;;;;;;5082049;28;20173;-60
2022/08/06 01:20:57;;;;;;;13.73;8.87;;;18.40;99.90;;;;;;5081075;28;20426;-61
2022/08/06 01:24:01;;;;;;;16.20;11.40;;;18.40;99.90;;;;;;5081261;28;20912;-60
2022/08/06 01:26:38;;;;;;;14.50;9.13;;;18.40;99.90;;;;;;5078773;28;20960;-60
2022/08/06 01:29:26;;;;;;;13.77;9.63;;;18.40;99.90;;;;;;5080277;28;20420;-60
2022/08/06 01:31:57;;;;;;;14.90;8.63;;;18.40;99.90;;;;;;5070752;28;20451;-61
2022/08/06 01:34:48;;;;;;;13.93;8.53;;;18.40;99.90;;;;;;5085244;28;20419;-61
2022/08/06 01:37:14;;;;;;;13.50;8.40;;;18.40;99.90;;;;;;5080910;28;20428;-60
2022/08/06 01:39:42;;;;;;;12.47;8.00;;;18.40;99.90;;;;;;5085330;28;20412;-60
2022/08/06 01:42:09;;;;;;;13.10;7.87;;;18.30;99.90;;;;;;5079119;28;20197;-60
2022/08/06 01:44:38;;;;;;;9.90;6.83;;;18.30;99.90;;;;;;5086446;28;20932;-60
2022/08/06 01:47:10;;;;;;;10.27;7.37;;;18.30;99.90;;;;;;5070384;28;20452;-60
2022/08/06 01:49:39;;;;;;;10.90;7.47;;;18.20;99.90;;;;;;5082961;28;20424;-61
2022/08/06 01:52:07;;;;;;;7.83;6.83;;;18.20;99.90;;;;;;5073600;28;20436;-61
2022/08/06 01:54:40;;;;;;;8.03;6.67;;;18.10;99.90;;;;;;5077158;28;20463;-61
2022/08/06 01:57:07;;;;;;;10.97;6.13;;;18.10;99.90;;;;;;5081217;28;20787;-61
2022/08/06 01:59:36;;;;;;;6.83;5.90;;;18.00;99.90;;;;;;5077323;28;20427;-60
2022/08/06 02:02:05;;;;;;;10.30;6.50;;;18.00;99.90;;;;;;5078879;28;20506;-61
2022/08/06 02:04:36;;;;;;;11.07;6.80;;;18.00;99.90;;;;;;5070843;28;20436;-61
2022/08/06 02:07:05;;;;;;;12.40;6.80;;;18.00;99.90;;;;;;5081842;28;20452;-61
2022/08/06 02:09:31;;;;;;;15.47;7.00;;;18.00;99.90;;;;;;5074352;28;20413;-61
2022/08/06 02:12:03;;;;;;;10.00;6.40;;;18.00;99.90;;;;;;5069021;28;20812;-61
2022/08/06 02:14:32;;;;;;;11.40;6.93;;;18.00;99.90;;;;;;5080104;28;20924;-61
2022/08/06 02:17:01;;;;;;;8.90;6.67;;;17.90;99.90;;;;;;5088208;28;20418;-60
2022/08/06 02:19:29;;;;;;;10.53;6.23;;;17.90;99.90;;;;;;5081071;28;20985;-61
2022/08/06 02:21:59;;;;;;;13.00;6.00;;;17.90;99.90;;;;;;5086720;28;21072;-61
2022/08/06 02:24:28;;;;;;;10.20;7.07;;;17.80;99.90;;;;;;5088041;28;20411;-60
2022/08/06 02:26:55;;;;;;;9.30;7.27;;;17.80;99.90;;;;;;5085467;28;20463;-61
2022/08/06 02:29:23;;;;;;;10.40;6.93;;;17.80;99.90;;;;;;5078011;28;20765;-61
2022/08/06 02:31:49;;;;;;;8.87;6.10;;;17.80;99.90;;;;;;5086518;28;21456;-60
2022/08/06 02:34:15;;;;;;;8.33;6.43;;;17.70;99.90;;;;;;5086204;28;20441;-61
2022/08/06 02:36:49;;;;;;;9.50;6.80;;;17.70;99.90;;;;;;5078771;28;20548;-61
2022/08/06 02:39:44;;;;;;;10.03;7.13;;;17.70;99.90;;;;;;5069380;28;20197;-61
2022/08/06 02:42:19;;;;;;;10.17;6.47;;;17.70;99.90;;;;;;5071309;28;20455;-60
2022/08/06 02:44:51;;;;;;;11.43;6.03;;;17.70;99.90;;;;;;5085312;28;20462;-61
2022/08/06 02:47:25;;;;;;;9.00;5.70;;;17.70;99.90;;;;;;5081629;28;20494;-61
2022/08/06 02:49:54;;;;;;;11.20;5.90;;;17.70;99.90;;;;;;5088515;28;20395;-61
2022/08/06 02:52:33;;;;;;;13.93;6.10;;;17.70;99.90;;;;;;5080294;28;20979;-60
2022/08/06 02:55:07;;;;;;;6.90;6.20;;;17.70;99.90;;;;;;5081394;28;20511;-61
2022/08/06 02:57:37;;;;;;;12.07;6.43;;;17.70;99.90;;;;;;5085717;28;20911;-60
2022/08/06 03:00:06;;;;;;;8.07;5.60;;;17.70;99.90;;;;;;5083311;28;20422;-60
2022/08/06 03:02:36;;;;;;;8.33;5.83;;;17.70;99.90;;;;;;5078237;28;20558;-60
2022/08/06 03:05:06;;;;;;;8.50;5.80;;;17.70;99.90;;;;;;5077958;28;20417;-61
2022/08/06 03:07:33;;;;;;;10.60;6.23;;;17.60;99.90;;;;;;5088560;28;20466;-60
2022/08/06 03:10:00;;;;;;;8.03;6.50;;;17.60;99.90;;;;;;5073213;28;20421;-60
2022/08/06 03:12:27;;;;;;;14.13;6.83;;;17.60;99.90;;;;;;5073283;28;20449;-60
2022/08/06 03:14:54;;;;;;;9.50;5.97;;;17.70;99.90;;;;;;5085226;28;20423;-61
2022/08/06 03:17:20;;;;;;;11.83;6.90;;;17.70;99.90;;;;;;5082363;28;20431;-60
2022/08/06 03:19:47;;;;;;;10.20;6.13;;;17.60;99.90;;;;;;5086875;28;21147;-60
2022/08/06 03:22:15;;;;;;;8.10;5.83;;;17.60;99.90;;;;;;5077336;28;20587;-61
2022/08/06 03:24:43;;;;;;;12.53;5.90;;;17.60;99.90;;;;;;5084929;28;20473;-61
2022/08/06 03:27:11;;;;;;;8.33;6.23;;;17.60;99.90;;;;;;5088354;28;20459;-60
2022/08/06 03:29:39;;;;;;;7.80;6.07;;;17.60;99.90;;;;;;5080789;28;20768;-60
2022/08/06 03:32:06;;;;;;;7.00;5.43;;;17.60;99.90;;;;;;5084190;28;20443;-60
2022/08/06 03:34:34;;;;;;;5.97;5.10;;;17.60;99.90;;;;;;5089158;28;20396;-61
2022/08/06 03:37:01;;;;;;;9.07;5.63;;;17.60;99.90;;;;;;5079627;28;20436;-61
2022/08/06 03:39:29;;;;;;;8.40;5.33;;;17.60;99.90;;;;;;5071661;28;20411;-60
2022/08/06 03:41:55;;;;;;;5.50;4.87;;;17.50;99.90;;;;;;5074873;28;20456;-60
2022/08/06 03:44:21;;;;;;;6.13;4.40;;;17.50;99.90;;;;;;5078814;28;20431;-60
2022/08/06 03:47:02;;;;;;;5.13;4.37;;;17.50;99.90;;;;;;5080875;28;20455;-60
2022/08/06 03:49:35;;;;;;;9.60;4.90;;;17.40;99.90;;;;;;5079313;28;20962;-61
2022/08/06 03:52:02;;;;;;;5.80;4.83;;;17.30;99.90;;;;;;5088093;28;20469;-61
2022/08/06 03:54:35;;;;;;;6.10;5.13;;;17.30;99.90;;;;;;5079485;28;20419;-61
2022/08/06 03:57:07;;;;;;;6.73;4.70;;;17.30;99.90;;;;;;5083522;28;20427;-61
2022/08/06 03:59:33;;;;;;;7.07;4.93;;;17.30;99.90;;;;;;5082409;28;20515;-61
2022/08/06 04:02:00;;;;;;;6.73;4.80;;;17.30;99.90;;;;;;5082817;28;20462;-61
2022/08/06 04:04:29;;;;;;;4.67;4.07;;;17.20;99.90;;;;;;5083740;28;20435;-61
2022/08/06 04:06:57;;;;;;;4.97;4.53;;;17.20;99.90;;;;;;5080357;28;21037;-61
2022/08/06 04:09:25;;;;;;;6.90;4.50;;;17.10;99.90;;;;;;5091982;28;20449;-60
2022/08/06 04:11:52;;;;;;;6.83;4.30;;;17.10;99.90;;;;;;5082627;28;20447;-60
2022/08/06 04:14:18;;;;;;;6.00;4.50;;;17.10;99.90;;;;;;5080964;28;20511;-61
2022/08/06 04:16:44;;;;;;;8.07;4.03;;;17.10;99.90;;;;;;5086447;28;20531;-60
2022/08/06 04:19:12;;;;;;;11.43;4.07;;;17.10;99.90;;;;;;5092206;28;20900;-61
2022/08/06 04:21:38;;;;;;;10.10;4.50;;;17.10;99.90;;;;;;5082132;28;20441;-60
2022/08/06 04:24:04;;;;;;;7.83;4.50;;;17.00;99.90;;;;;;5071009;28;20990;-61
2022/08/06 04:26:31;;;;;;;4.53;3.90;;;17.00;99.90;;;;;;5079932;28;20467;-62
2022/08/06 04:29:00;;;;;;;4.30;3.90;;;17.00;99.90;;;;;;5088773;28;20431;-61
2022/08/06 04:31:28;;;;;;;5.63;4.03;;;17.00;99.90;;;;;;5084164;28;20452;-61
2022/08/06 04:33:55;;;;;;;6.17;4.00;;;17.00;99.90;;;;;;5080664;28;20458;-60
2022/08/06 04:36:21;;;;;;;10.50;4.70;;;17.00;99.90;;;;;;5079200;28;20436;-61
2022/08/06 04:38:47;;;;;;;8.73;4.73;;;17.00;99.90;;;;;;5080995;28;20451;-61
2022/08/06 04:41:13;;;;;;;7.87;4.37;;;17.00;99.90;;;;;;5077701;28;20429;-60
2022/08/06 04:43:40;;;;;;;6.20;4.23;;;17.00;99.90;;;;;;5077623;28;20412;-61
2022/08/06 04:46:07;;;;;;;6.30;4.53;;;17.00;99.90;;;;;;5081922;28;20456;-60
2022/08/06 04:48:34;;;;;;;8.03;4.27;;;17.00;99.90;;;;;;5079718;28;20964;-60
2022/08/06 04:51:02;;;;;;;6.57;4.13;;;17.00;99.90;;;;;;5089946;28;20447;-60
2022/08/06 04:53:37;;;;;;;7.57;4.60;;;17.00;99.90;;;;;;5072879;28;20425;-60
2022/08/06 04:56:04;;;;;;;6.93;4.07;;;16.90;99.90;;;;;;5077015;28;20419;-60
2022/08/06 04:58:29;;;;;;;6.30;4.67;;;16.90;99.90;;;;;;5076023;28;20424;-61
2022/08/06 05:00:55;;;;;;;4.50;4.10;;;16.90;99.90;;;;;;5081603;28;20440;-60
2022/08/06 05:03:20;;;;;;;11.13;3.83;;;16.90;99.90;;;;;;5086689;28;20705;-59
2022/08/06 05:06:23;;;;;;;5.33;4.10;;;16.90;99.90;;;;;;5088154;28;20203;-61
2022/08/06 05:08:57;;;;;;;6.50;4.37;;;16.90;99.90;;;;;;5075744;28;20166;-60
2022/08/06 05:11:30;;;;;;;10.00;4.73;;;16.90;99.90;;;;;;5089055;28;20453;-60
2022/08/06 05:14:04;;;;;;;6.17;3.93;;;16.90;99.90;;;;;;5083626;28;20427;-60
2022/08/06 05:16:34;;;;;;;5.73;3.63;;;16.90;99.90;;;;;;5079660;28;20583;-60
2022/08/06 05:19:03;;;;;;;8.70;4.37;;;16.80;99.90;;;;;;5088181;28;20545;-60
2022/08/06 05:21:36;;;;;;;6.30;4.07;;;16.80;99.90;;;;;;5075932;28;20486;-60
2022/08/06 05:24:02;;;;;;;6.30;3.53;;;16.80;99.90;;;;;;5072582;28;20435;-60
2022/08/06 05:26:28;;;;;;;5.00;4.00;;;16.80;99.90;;;;;;5087455;28;20499;-60
2022/08/06 05:28:54;;;;;;;5.57;4.03;;;16.80;99.90;;;;;;5081294;28;20521;-60
2022/08/06 05:31:37;;;;;;;8.20;4.13;;;16.80;99.90;;;;;;5086254;28;20194;-60
2022/08/06 05:34:03;;;;;;;4.73;4.20;;;16.80;99.90;;;;;;5084986;28;20174;-60
2022/08/06 05:36:29;;;;;;;5.80;3.90;;;16.80;99.90;;;;;;5073308;28;20451;-61
2022/08/06 05:38:55;;;;;;;6.33;3.60;;;16.80;99.90;;;;;;5070727;28;20466;-60
2022/08/06 05:41:20;;;;;;;6.17;4.13;;;16.80;99.90;;;;;;5083974;28;20197;-60
2022/08/06 05:43:46;;;;;;;9.13;3.50;;;16.80;99.90;;;;;;5085272;28;20310;-61
2022/08/06 05:46:17;;;;;;;9.30;4.13;;;16.80;99.90;;;;;;5083095;28;20296;-60
2022/08/06 05:48:50;;;;;;;5.20;4.70;;;16.80;99.90;;;;;;5072876;28;20244;-60
2022/08/06 05:51:38;;;;;;;5.43;3.60;;;16.80;99.90;;;;;;5079051;28;20428;-60
2022/08/06 05:54:15;;;;;;;5.80;4.13;;;16.80;99.90;;;;;;5070802;28;20454;-61
2022/08/06 05:56:44;;;;;;;4.93;3.80;;;16.80;99.90;;;;;;5082032;28;20493;-60
2022/08/06 05:59:21;;;;;;;7.67;4.30;;;16.90;99.90;;;;;;5080330;28;21096;-61
2022/08/06 06:01:49;;;;;;;4.70;3.70;;;16.90;99.90;;;;;;5082822;28;20462;-61
2022/08/06 06:04:14;;;;;;;6.50;3.83;;;16.90;99.90;;;;;;5077609;28;20452;-60
2022/08/06 06:06:41;;;;;;;8.30;4.50;;;16.90;99.90;;;;;;5075511;28;20463;-60
2022/08/06 06:09:07;;;;;;;7.10;4.20;;;17.00;99.90;;;;;;5089705;28;20245;-61
2022/08/06 06:11:33;;;;;;;5.57;3.63;;;17.00;99.90;;;;;;5084036;28;20459;-60
2022/08/06 06:13:59;;;;;;;4.87;3.43;;;17.10;99.90;;;;;;5084468;28;20900;-60
2022/08/06 06:16:52;;;;;;;6.43;4.17;;;17.10;99.90;;;;;;5081925;28;20451;-60
2022/08/06 06:19:32;;;;;;;8.47;3.73;;;17.00;99.90;;;;;;5084818;28;20307;-60
2022/08/06 06:22:21;;;;;;;6.53;4.50;;;17.00;99.90;;;;;;5086677;28;20494;-60
2022/08/06 06:24:59;;;;;;;6.27;3.70;;;17.00;99.90;;;;;;5071928;28;20431;-61
2022/08/06 06:27:57;;;;;;;8.27;4.10;;;17.00;99.90;;;;;;5077088;28;20468;-60
2022/08/06 06:30:31;;;;;;;3.93;3.53;;;17.00;99.90;;;;;;5074360;28;20505;-60
2022/08/06 06:33:12;;;;;;;5.27;3.60;;;16.90;99.90;;;;;;5078628;28;20434;-60
2022/08/06 06:35:56;;;;;;;5.13;3.47;;;16.90;99.90;;;;;;5069547;28;21224;-60
2022/08/06 06:39:01;;;;;;;9.73;3.60;;;16.90;99.90;;;;;;5077645;28;20478;-61
2022/08/06 06:41:36;;;;;;;3.70;3.40;;;16.80;99.90;;;;;;5044867;28;20439;-60
2022/08/06 06:44:09;;;;;;;7.47;3.90;;;16.80;99.90;;;;;;5072273;28;20427;-58
2022/08/06 06:46:46;;;;;;;6.40;4.30;;;16.90;99.90;;;;;;5067893;28;20479;-59
2022/08/06 06:49:20;;;;;;;8.30;3.80;;;16.90;99.90;;;;;;5072462;28;20619;-59
2022/08/06 06:51:58;;;;;;;4.47;4.07;;;16.90;99.90;;;;;;5081739;28;20451;-59
2022/08/06 06:54:33;;;;;;;6.03;3.40;;;16.90;99.90;;;;;;5080987;28;20435;-59
2022/08/06 06:57:01;;;;;;;7.30;4.20;;;16.90;99.90;;;;;;5086452;28;20478;-59
2022/08/06 06:59:34;;;;;;;7.47;4.00;;;16.90;99.90;;;;;;5087292;28;20427;-59
2022/08/06 07:02:02;;;;;;;4.07;3.70;;;17.00;99.90;;;;;;5082034;28;21126;-59
2022/08/06 07:04:30;;;;;;;4.97;3.57;;;17.00;99.90;;;;;;5085113;28;21083;-59
2022/08/06 07:06:58;;;;;;;5.70;3.50;;;17.00;99.90;;;;;;5080218;28;20450;-58
2022/08/06 07:09:28;;;;;;;5.23;3.70;;;17.00;99.90;;;;;;5090223;28;20769;-59
2022/08/06 07:11:56;;;;;;;5.20;3.67;;;16.90;99.90;;;;;;5083748;28;20478;-59
2022/08/06 07:14:23;;;;;;;11.37;4.40;;;16.90;99.90;;;;;;5086749;28;20421;-58
2022/08/06 07:16:54;;;;;;;5.47;3.67;;;16.90;99.90;;;;;;5084084;28;20443;-59
2022/08/06 07:19:21;;;;;;;8.10;4.30;;;16.80;99.90;;;;;;5077776;28;20910;-59
2022/08/06 07:21:48;;;;;;;7.00;3.70;;;16.80;99.90;;;;;;5087577;28;20822;-59
2022/08/06 07:24:17;;;;;;;6.07;3.90;;;16.80;99.90;;;;;;5092851;28;20419;-59
2022/08/06 07:26:44;;;;;;;7.07;3.83;;;16.80;99.90;;;;;;5083709;28;20463;-59
2022/08/06 07:29:11;;;;;;;5.43;4.10;;;16.80;99.90;;;;;;5079935;28;20428;-61
2022/08/06 07:31:40;;;;;;;4.50;3.47;;;16.90;99.90;;;;;;5085898;28;20451;-60
2022/08/06 07:34:06;;;;;;;6.00;3.50;;;16.90;99.90;;;;;;5092428;28;20400;-60
2022/08/06 07:36:34;;;;;;;5.47;4.50;;;17.00;99.90;;;;;;5090674;28;20483;-61
2022/08/06 07:39:06;;;;;;;4.67;3.90;;;17.10;99.90;;;;;;5080306;28;20439;-60
2022/08/06 07:41:34;;;;;;;4.23;3.70;;;17.10;99.90;;;;;;5077011;28;20464;-59
2022/08/06 07:44:02;;;;;;;8.10;4.10;;;17.10;99.90;;;;;;5081850;28;20485;-60
2022/08/06 07:46:39;;;;;;;7.57;3.60;;;17.10;99.90;;;;;;5074724;28;20455;-60
2022/08/06 07:49:06;;;;;;;7.70;4.30;;;17.20;99.90;;;;;;5070864;28;20430;-60
2022/08/06 07:51:36;;;;;;;4.43;3.80;;;17.20;99.90;;;;;;5075781;28;20504;-61
2022/08/06 07:54:07;;;;;;;5.07;4.20;;;17.30;99.90;;;;;;5077488;28;20509;-61
2022/08/06 07:56:35;;;;;;;4.00;3.60;;;17.40;99.90;;;;;;5074205;28;20434;-61
2022/08/06 07:59:03;;;;;;;7.97;3.80;;;17.40;99.90;;;;;;5073635;28;20447;-64
2022/08/06 08:01:29;;;;;;;4.00;3.70;;;17.50;99.90;;;;;;5068807;28;20999;-64
2022/08/06 08:06:40;;;;;;;4.77;3.90;;;17.60;99.90;;;;;;5070747;28;20477;-64
2022/08/06 08:09:10;;;;;;;12.30;4.00;;;17.60;99.90;;;;;;5078296;28;20428;-66
2022/08/06 08:11:40;;;;;;;9.60;4.03;;;17.70;99.90;;;;;;5070649;28;20643;-67
2022/08/06 08:14:10;;;;;;;8.43;3.50;;;17.70;99.90;;;;;;5071783;28;20717;-65
2022/08/06 08:16:37;;;;;;;3.97;3.57;;;17.70;99.90;;;;;;5072560;28;20802;-64
2022/08/06 08:19:18;;;;;;;4.83;3.50;;;17.80;99.90;;;;;;5069479;28;20466;-66
2022/08/06 08:21:44;;;;;;;5.87;3.73;;;17.80;99.90;;;;;;5070693;28;20463;-62
2022/08/06 08:24:11;;;;;;;4.80;3.43;;;17.80;99.90;;;;;;5076495;28;20436;-61
2022/08/06 08:26:36;;;;;;;9.83;3.90;;;17.80;99.90;;;;;;5080953;28;20460;-63
2022/08/06 08:29:02;;;;;;;5.60;3.33;;;17.80;99.90;;;;;;5077885;28;20506;-62
2022/08/06 08:31:28;;;;;;;5.73;3.77;;;17.80;99.90;;;;;;5072792;28;20197;-64
2022/08/06 08:33:53;;;;;;;9.43;4.50;;;17.80;99.90;;;;;;5071495;28;20651;-62
2022/08/06 08:36:20;;;;;;;5.20;4.07;;;17.90;99.90;;;;;;5071806;28;20178;-64
2022/08/06 08:38:46;;;;;;;7.70;3.60;;;17.90;99.90;;;;;;5074110;28;20177;-63
2022/08/06 08:41:25;;;;;;;7.13;4.40;;;17.90;99.90;;;;;;5076835;28;20437;-64
2022/08/06 08:43:59;;;;;;;5.07;3.57;;;17.90;99.90;;;;;;5065692;28;20665;-65
2022/08/06 08:46:26;;;;;;;5.63;3.60;;;18.00;99.90;;;;;;5071311;28;20541;-65
2022/08/06 08:48:54;;;;;;;7.00;4.40;;;18.00;99.90;;;;;;5072635;28;20428;-62
2022/08/06 08:51:21;;;;;;;6.57;4.30;;;18.00;99.90;;;;;;5072877;28;20443;-65
2022/08/06 08:53:55;;;;;;;5.50;3.70;;;18.00;99.90;;;;;;5075483;28;20831;-64
2022/08/06 08:56:22;;;;;;;4.10;3.70;;;18.00;99.90;;;;;;5072952;28;20436;-66
2022/08/06 08:58:48;;;;;;;5.07;4.07;;;18.10;99.90;;;;;;5075660;28;20443;-64
2022/08/06 09:01:15;;;;;;;6.87;4.50;;;18.10;99.90;;;;;;5074370;28;20440;-66
2022/08/06 09:03:41;;;;;;;4.63;4.17;;;18.10;99.90;;;;;;5080050;28;20436;-65
2022/08/06 09:06:08;;;;;;;8.30;4.60;;;18.10;99.90;;;;;;5074142;28;21195;-63
2022/08/06 09:08:36;;;;;;;5.50;3.80;;;18.10;99.90;;;;;;5073573;28;20178;-66
2022/08/06 09:11:02;;;;;;;4.87;3.90;;;18.10;99.90;;;;;;5074051;28;20425;-63
2022/08/06 09:13:29;;;;;;;4.43;3.80;;;18.10;99.90;;;;;;5068955;28;20421;-65
2022/08/06 09:15:55;;;;;;;6.03;4.23;;;18.10;99.90;;;;;;5067896;28;21020;-62
2022/08/06 09:18:23;;;;;;;5.07;4.20;;;18.10;99.90;;;;;;5067740;28;20469;-62
2022/08/06 09:20:49;;;;;;;6.53;3.70;;;18.10;99.90;;;;;;5070048;28;20434;-65
2022/08/06 09:23:16;;;;;;;6.43;4.20;;;18.00;99.90;;;;;;5072233;28;20741;-66
2022/08/06 09:25:44;;;;;;;7.80;4.03;;;18.00;99.90;;;;;;5072300;28;20222;-63
2022/08/06 09:28:25;;;;;;;4.90;4.40;;;18.00;99.90;;;;;;5064074;28;20993;-66
2022/08/06 09:31:04;;;;;;;4.43;4.03;;;18.00;99.90;;;;;;5067867;28;20423;-59
2022/08/06 09:33:31;;;;;;;4.20;3.80;;;18.00;99.90;;;;;;5066726;28;20427;-56
2022/08/06 09:36:08;;;;;;;5.37;4.13;;;18.00;99.90;;;;;;5066129;28;20950;-58
2022/08/06 09:38:46;;;;;;;7.87;4.57;;;18.00;99.90;;;;;;5069495;28;20427;-56
2022/08/06 09:41:12;;;;;;;6.10;4.10;;;18.00;99.90;;;;;;5069358;28;20424;-64
2022/08/06 09:43:38;;;;;;;5.90;4.50;;;18.00;99.90;;;;;;5070349;28;20982;-64
2022/08/06 09:46:06;;;;;;;6.33;4.10;;;18.00;99.90;;;;;;5073972;28;20455;-63
2022/08/06 09:48:32;;;;;;;6.87;4.20;;;18.00;99.90;;;;;;5065120;28;20432;-66
2022/08/06 09:50:58;;;;;;;6.33;4.73;;;18.00;99.90;;;;;;5083086;28;20951;-64
2022/08/06 09:53:24;;;;;;;4.73;4.03;;;18.00;99.90;;;;;;5089739;28;20170;-64
2022/08/06 09:55:52;;;;;;;14.20;4.43;;;18.00;99.90;;;;;;5087441;28;20185;-66
2022/08/06 09:58:29;;;;;;;5.30;4.53;;;18.00;99.90;;;;;;5072311;28;20428;-63
2022/08/06 10:00:55;;;;;;;5.40;4.00;;;18.00;99.90;;;;;;5083945;28;20439;-65
2022/08/06 10:03:21;;;;;;;9.40;4.23;;;18.00;99.90;;;;;;5085126;28;20622;-62
2022/08/06 10:06:01;;;;;;;5.17;4.27;;;18.10;99.90;;;;;;5080407;28;20182;-62
2022/08/06 10:08:27;;;;;;;4.90;4.30;;;18.10;99.90;;;;;;5077633;28;20654;-64
2022/08/06 10:10:53;;;;;;;4.73;4.33;;;18.20;99.90;;;;;;5078446;28;20569;-64
2022/08/06 10:13:26;;;;;;;5.20;4.50;;;18.20;99.90;;;;;;5078246;28;20511;-65
2022/08/06 10:15:54;;;;;;;6.93;4.40;;;18.20;99.90;;;;;;5079475;28;20537;-64
2022/08/06 10:18:41;;;;;;;5.13;4.40;;;18.30;99.90;;;;;;5072673;28;20429;-65
2022/08/06 10:21:12;;;;;;;9.53;3.80;;;18.30;99.90;;;;;;5076526;28;20493;-65
2022/08/06 10:23:40;;;;;;;6.90;4.57;;;18.40;99.90;;;;;;5078510;28;20429;-66
2022/08/06 10:26:08;;;;;;;5.30;4.40;;;18.40;99.90;;;;;;5083752;28;20482;-64
2022/08/06 10:28:36;;;;;;;13.73;4.57;;;18.50;99.90;;;;;;5087117;28;20431;-65
2022/08/06 10:31:05;;;;;;;9.10;4.73;;;18.50;99.90;;;;;;5081845;28;20466;-64
2022/08/06 10:33:39;;;;;;;8.33;4.40;;;18.50;99.90;;;;;;5083060;28;20435;-65
2022/08/06 10:36:12;;;;;;;6.30;4.30;;;18.50;99.90;;;;;;5074751;28;20917;-65
2022/08/06 10:38:42;;;;;;;5.63;4.80;;;18.60;99.90;;;;;;5069002;28;20436;-65
2022/08/06 10:41:10;;;;;;;6.30;5.40;;;18.50;99.90;;;;;;5083411;28;20528;-65
2022/08/06 10:43:37;;;;;;;6.47;4.90;;;18.50;99.90;;;;;;5086616;28;20431;-63
2022/08/06 10:46:08;;;;;;;5.57;5.07;;;18.60;99.90;;;;;;5078938;28;20567;-65
2022/08/06 10:48:37;;;;;;;8.53;4.80;;;18.60;99.90;;;;;;5080098;28;20924;-66
2022/08/06 10:51:06;;;;;;;6.60;4.77;;;18.60;99.90;;;;;;5086171;28;20432;-63
2022/08/06 10:53:37;;;;;;;6.73;4.77;;;18.60;99.90;;;;;;5077521;28;20449;-63
2022/08/06 10:56:05;;;;;;;5.10;4.43;;;18.60;99.90;;;;;;5081816;28;20439;-65
2022/08/06 10:58:33;;;;;;;7.00;5.10;;;18.60;99.90;;;;;;5083654;28;20413;-64
2022/08/06 11:01:01;;;;;;;6.13;4.93;;;18.60;99.90;;;;;;5081172;28;20527;-63
2022/08/06 11:03:32;;;;;;;5.77;4.87;;;18.70;99.90;;;;;;5086241;28;20443;-63
2022/08/06 11:06:31;;;;;;;5.20;4.20;;;18.60;99.90;;;;;;5075915;28;20928;-63
2022/08/06 11:09:25;;;;;;;9.13;4.80;;;18.70;99.90;;;;;;5075708;28;20926;-63
2022/08/06 11:12:12;;;;;;;7.00;4.67;;;18.70;99.90;;;;;;5069816;28;20447;-64
2022/08/06 11:14:39;;;;;;;7.07;5.50;;;18.80;99.90;;;;;;5073726;28;20428;-64
2022/08/06 11:17:06;;;;;;;9.17;4.63;;;18.80;99.90;;;;;;5077383;28;20439;-65
2022/08/06 11:19:45;;;;;;;13.17;5.23;;;18.80;99.90;;;;;;5085811;28;20427;-63
2022/08/06 11:22:37;;;;;;;4.87;4.37;;;18.90;99.90;;;;;;5086180;28;20456;-63
2022/08/06 11:25:06;;;;;;;6.40;4.53;;;19.00;99.90;;;;;;5072817;28;20434;-65
2022/08/06 11:27:52;;;;;;;5.03;4.63;;;19.00;99.90;;;;;;5073113;28;20460;-64
2022/08/06 11:30:19;;;;;;;6.00;4.50;;;19.10;99.90;;;;;;5081365;28;20432;-63
2022/08/06 11:32:50;;;;;;;5.43;4.70;;;19.10;99.90;;;;;;5081358;28;20975;-65
2022/08/06 11:35:34;;;;;;;4.70;4.30;;;19.10;99.90;;;;;;5082481;28;20430;-63
2022/08/06 11:38:08;;;;;;;13.67;5.00;;;19.10;99.90;;;;;;5081208;28;20426;-65
2022/08/06 11:41:00;;;;;;;7.70;5.67;;;19.10;99.90;;;;;;5085053;28;20428;-64
2022/08/06 11:43:51;;;;;;;5.10;4.60;;;19.10;99.90;;;;;;5071289;28;20527;-63
2022/08/06 11:46:39;;;;;;;8.43;5.30;;;19.20;99.90;;;;;;5078607;28;20836;-64
2022/08/06 11:49:31;;;;;;;5.53;4.67;;;19.20;99.90;;;;;;5081532;28;20427;-65
2022/08/06 11:51:57;;;;;;;7.57;5.00;;;19.30;99.90;;;;;;5079404;28;20485;-63
2022/08/06 11:54:32;;;;;;;6.20;5.17;;;19.40;99.90;;;;;;5081811;28;20432;-64
2022/08/06 11:57:01;;;;;;;7.70;5.00;;;19.50;99.90;;;;;;5079789;28;20989;-64
2022/08/06 11:59:30;;;;;;;7.40;5.33;;;19.60;99.90;;;;;;5075661;28;20437;-63
2022/08/06 12:01:57;;;;;;;12.07;5.30;;;19.60;99.50;;;;;;5089990;28;20548;-62
2022/08/06 12:04:44;;;;;;;7.47;5.47;;;19.70;98.50;;;;;;5080258;28;20750;-65
2022/08/06 12:07:25;;;;;;;10.30;4.77;;;19.80;97.80;;;;;;5086483;28;20843;-64
2022/08/06 12:10:04;;;;;;;7.40;4.70;;;20.00;97.50;;;;;;5077503;28;20448;-62
2022/08/06 12:12:32;;;;;;;6.10;5.20;;;20.10;95.20;;;;;;5083313;28;20574;-64
2022/08/06 12:15:01;;;;;;;6.83;4.97;;;20.20;94.00;;;;;;5085908;28;20424;-64
2022/08/06 12:17:29;;;;;;;5.40;4.90;;;20.20;94.20;;;;;;5080354;28;20417;-62
2022/08/06 12:19:57;;;;;;;21.37;5.20;;;20.30;92.50;;;;;;5088562;28;20439;-63
2022/08/06 12:22:24;;;;;;;6.70;5.10;;;20.40;93.80;;;;;;5085228;28;20447;-62
2022/08/06 12:24:54;;;;;;;5.17;4.40;;;20.40;93.20;;;;;;5085803;28;20435;-64
2022/08/06 12:27:21;;;;;;;8.77;5.57;;;20.40;93.90;;;;;;5081282;28;21007;-64
2022/08/06 12:29:47;;;;;;;8.13;4.90;;;20.50;92.20;;;;;;5087282;28;20928;-63
2022/08/06 12:32:26;;;;;;;7.93;5.50;;;20.50;91.90;;;;;;5083610;28;20456;-65
2022/08/06 12:34:54;;;;;;;7.40;4.87;;;20.60;91.90;;;;;;5078333;28;20455;-64
2022/08/06 12:37:19;;;;;;;9.83;4.80;;;20.60;91.00;;;;;;5091264;28;20435;-64
2022/08/06 12:42:32;;;;;;;5.37;4.63;;;20.60;92.70;;;;;;5081146;28;21020;-64
2022/08/06 12:44:58;;;;;;;6.80;4.20;;;20.60;92.60;;;;;;5086422;28;20442;-63
2022/08/06 12:47:25;;;;;;;7.40;4.50;;;20.70;93.30;;;;;;5079627;28;20463;-65
2022/08/06 12:49:52;;;;;;;13.30;5.27;;;20.70;93.20;;;;;;5088531;28;20459;-64
2022/08/06 12:52:22;;;;;;;5.97;4.90;;;20.70;92.70;;;;;;5077751;28;20447;-63
2022/08/06 12:54:49;;;;;;;7.20;4.77;;;20.70;92.40;;;;;;5082957;28;20432;-63
2022/08/06 12:57:26;;;;;;;7.17;4.87;;;20.60;91.50;;;;;;5079618;28;20447;-66
2022/08/06 12:59:52;;;;;;;4.73;4.30;;;20.60;90.10;;;;;;5082201;28;20407;-64
2022/08/06 13:02:19;;;;;;;6.27;4.77;;;20.60;90.40;;;;;;5075525;28;20841;-64
2022/08/06 13:04:50;;;;;;;6.30;4.60;;;20.60;89.40;;;;;;5083295;28;20424;-64